Time;durP1;ratioP1;P1;durP2;ratioP2;P2;SDS_P1;SDS_P2;PMS_P1;PMS_P2;Temp;Humidity;BMP_temperature;BMP_pressure;BME280_temperature;BME280_humidity;BME280_pressure;Samples;Min_cycle;Max_cycle;Signal;HPM_P1;HPM_P2
2023/08/31 00:01:40;;;;;;;5.82;5.28;;;14.40;99.90;;;;;;5044855;28;20182;-87
2023/08/31 00:04:10;;;;;;;5.55;5.00;;;14.60;1.00;;;;;;5044995;28;20684;-87
2023/08/31 00:06:36;;;;;;;4.72;4.32;;;14.50;44.80;;;;;;5043983;28;20190;-88
2023/08/31 00:09:04;;;;;;;5.15;4.72;;;14.40;1.00;;;;;;5044637;28;20748;-86
2023/08/31 00:11:30;;;;;;;5.30;4.28;;;14.50;99.90;;;;;;5046088;28;20167;-87
2023/08/31 00:13:56;;;;;;;5.55;5.00;;;14.50;58.80;;;;;;5044035;28;20198;-89
2023/08/31 00:16:25;;;;;;;5.50;5.00;;;14.30;1.00;;;;;;5044287;28;20185;-88
2023/08/31 00:18:51;;;;;;;5.13;4.53;;;14.50;1.00;;;;;;5061034;28;20214;-88
2023/08/31 00:21:16;;;;;;;5.30;4.22;;;14.40;1.00;;;;;;5044871;28;20196;-88
2023/08/31 00:23:43;;;;;;;6.05;4.43;;;14.70;99.90;;;;;;5060898;28;20773;-87
2023/08/31 00:26:08;;;;;;;5.35;4.63;;;14.40;22.20;;;;;;5061001;28;20189;-88
2023/08/31 00:28:34;;;;;;;5.22;4.70;;;14.90;1.00;;;;;;5045989;28;20205;-89
2023/08/31 00:31:03;;;;;;;5.15;4.65;;;14.40;1.00;;;;;;5044537;28;20210;-88
2023/08/31 00:33:29;;;;;;;5.93;4.88;;;14.40;99.90;;;;;;5044467;28;20713;-87
2023/08/31 00:35:56;;;;;;;5.70;5.20;;;14.30;99.90;;;;;;5044414;28;20183;-88
2023/08/31 00:38:21;;;;;;;5.50;5.00;;;15.00;1.00;;;;;;5044286;28;20202;-88
2023/08/31 00:40:47;;;;;;;5.38;4.85;;;14.60;99.90;;;;;;5045409;28;20536;-88
2023/08/31 00:43:17;;;;;;;5.35;4.85;;;14.50;99.90;;;;;;5044522;28;20178;-88
2023/08/31 00:45:45;;;;;;;5.88;5.13;;;14.70;1.00;;;;;;5044688;28;20208;-88
2023/08/31 00:48:14;;;;;;;5.40;4.88;;;14.30;45.00;;;;;;5044120;28;20202;-88
2023/08/31 00:50:40;;;;;;;5.68;5.18;;;14.50;99.90;;;;;;5043769;28;20178;-87
2023/08/31 00:53:05;;;;;;;5.28;4.78;;;14.60;99.90;;;;;;5044199;28;20179;-87
2023/08/31 00:55:32;;;;;;;5.65;5.15;;;14.50;99.90;;;;;;5044069;28;20178;-89
2023/08/31 00:57:59;;;;;;;6.10;5.50;;;14.40;1.00;;;;;;5043995;28;20187;-87
2023/08/31 01:00:40;;;;;;;5.70;5.15;;;14.80;1.00;;;;;;5045174;28;20182;-88
2023/08/31 01:03:12;;;;;;;6.60;5.60;;;14.50;1.00;;;;;;5044903;28;20201;-87
2023/08/31 01:05:41;;;;;;;8.93;5.90;;;14.50;99.90;;;;;;5043957;28;20214;-87
2023/08/31 01:08:26;;;;;;;5.75;5.25;;;14.40;1.00;;;;;;5043775;28;20688;-88
2023/08/31 01:11:06;;;;;;;6.00;5.38;;;14.70;48.90;;;;;;5047923;28;20527;-88
2023/08/31 01:13:34;;;;;;;5.63;5.13;;;14.50;1.00;;;;;;5064036;28;20197;-88
2023/08/31 01:16:04;;;;;;;7.18;5.55;;;14.50;99.90;;;;;;5047162;28;20273;-89
2023/08/31 01:18:33;;;;;;;5.80;5.30;;;14.80;99.90;;;;;;5047464;28;20561;-89
2023/08/31 01:21:02;;;;;;;6.32;5.72;;;14.40;1.00;;;;;;5047706;28;20185;-88
2023/08/31 01:23:41;;;;;;;6.55;5.97;;;14.40;1.00;;;;;;5047477;28;20171;-90
2023/08/31 01:26:07;;;;;;;6.45;5.78;;;14.30;1.00;;;;;;5047258;28;20186;-88
2023/08/31 01:28:33;;;;;;;6.45;5.85;;;14.30;99.90;;;;;;5047024;28;20727;-88
2023/08/31 01:31:04;;;;;;;6.75;6.05;;;14.10;1.00;;;;;;5047363;28;20218;-88
2023/08/31 01:33:30;;;;;;;6.95;6.25;;;14.10;1.00;;;;;;5047410;28;20182;-89
2023/08/31 01:35:58;;;;;;;7.10;6.40;;;14.10;99.90;;;;;;5048352;28;20189;-88
2023/08/31 01:38:28;;;;;;;8.73;6.20;;;14.10;99.90;;;;;;5063740;28;20213;-88
2023/08/31 01:41:10;;;;;;;7.18;6.22;;;13.90;1.00;;;;;;5047018;28;20182;-87
2023/08/31 01:43:38;;;;;;;8.55;6.82;;;13.80;96.30;;;;;;5047029;28;20243;-88
2023/08/31 01:46:04;;;;;;;7.25;6.55;;;14.30;1.00;;;;;;5048184;28;20182;-89
2023/08/31 01:48:30;;;;;;;6.75;6.05;;;13.80;99.90;;;;;;5047513;28;20220;-88
2023/08/31 01:50:56;;;;;;;7.97;7.18;;;13.60;94.00;;;;;;5047068;28;20178;-89
2023/08/31 01:53:22;;;;;;;7.07;6.38;;;13.80;66.60;;;;;;5047088;28;20175;-89
2023/08/31 01:55:48;;;;;;;7.10;6.40;;;13.70;1.00;;;;;;5046841;28;20235;-87
2023/08/31 01:58:13;;;;;;;7.50;6.70;;;13.60;99.90;;;;;;5047372;28;20182;-88
2023/08/31 02:00:39;;;;;;;7.45;6.63;;;13.70;1.00;;;;;;5047312;28;20793;-90
2023/08/31 02:03:06;;;;;;;8.75;7.40;;;14.40;8.90;;;;;;5047130;28;20182;-88
2023/08/31 02:05:31;;;;;;;8.20;6.82;;;13.50;99.90;;;;;;5047031;28;20186;-88
2023/08/31 02:07:57;;;;;;;8.10;7.30;;;14.30;99.90;;;;;;5046924;28;20679;-87
2023/08/31 02:10:22;;;;;;;8.90;6.93;;;13.90;99.90;;;;;;5048517;28;20190;-86
2023/08/31 02:12:48;;;;;;;7.18;6.53;;;13.30;99.90;;;;;;5046782;28;20242;-87
2023/08/31 02:15:14;;;;;;;8.00;7.20;;;13.90;1.00;;;;;;5046655;28;20170;-88
2023/08/31 02:17:39;;;;;;;8.00;7.25;;;13.90;44.00;;;;;;5046647;28;20186;-88
2023/08/31 02:20:06;;;;;;;8.85;6.90;;;14.30;99.90;;;;;;5045752;28;20746;-89
2023/08/31 02:22:35;;;;;;;7.95;7.25;;;13.40;1.00;;;;;;5046175;28;20182;-89
2023/08/31 02:25:01;;;;;;;9.10;8.15;;;13.30;99.90;;;;;;5046461;28;20251;-89
2023/08/31 02:27:27;;;;;;;9.68;7.93;;;13.40;99.90;;;;;;5046650;28;20711;-88
2023/08/31 02:29:53;;;;;;;8.48;7.18;;;13.30;1.00;;;;;;5062587;28;20210;-88
2023/08/31 02:32:19;;;;;;;8.63;7.68;;;13.70;1.00;;;;;;5046326;28;20597;-90
2023/08/31 02:34:44;;;;;;;8.23;7.20;;;13.20;50.90;;;;;;5046464;28;20191;-89
2023/08/31 02:37:10;;;;;;;9.23;7.20;;;13.00;99.90;;;;;;5046599;28;20548;-88
2023/08/31 02:39:36;;;;;;;8.88;7.97;;;12.90;1.00;;;;;;5046490;28;20256;-89
2023/08/31 02:42:02;;;;;;;9.35;7.38;;;14.00;1.00;;;;;;5046063;28;20186;-89
2023/08/31 02:44:27;;;;;;;8.75;7.72;;;13.70;99.90;;;;;;5046444;28;20601;-88
2023/08/31 02:46:53;;;;;;;10.13;9.00;;;13.90;1.00;;;;;;5046129;28;20182;-89
2023/08/31 02:49:18;;;;;;;8.77;7.72;;;13.10;99.90;;;;;;5046346;28;20197;-89
2023/08/31 02:51:44;;;;;;;10.07;9.07;;;14.10;72.30;;;;;;5046001;28;20281;-88
2023/08/31 02:54:09;;;;;;;10.05;8.95;;;13.00;42.90;;;;;;5047500;28;20186;-88
2023/08/31 02:56:35;;;;;;;10.75;9.68;;;13.50;99.90;;;;;;5045613;28;20348;-90
2023/08/31 02:59:01;;;;;;;11.88;9.25;;;13.00;1.00;;;;;;5045367;28;20221;-89
2023/08/31 03:01:26;;;;;;;10.32;9.43;;;13.20;1.00;;;;;;5047703;28;20664;-88
2023/08/31 03:03:52;;;;;;;10.38;9.40;;;13.00;99.90;;;;;;5045753;28;20186;-86
2023/08/31 03:06:18;;;;;;;10.02;8.90;;;13.60;1.00;;;;;;5045841;28;20796;-90
2023/08/31 03:08:43;;;;;;;11.13;10.02;;;13.00;94.50;;;;;;5045693;28;20257;-89
2023/08/31 03:11:09;;;;;;;11.15;10.15;;;13.50;1.00;;;;;;5045824;28;20558;-89
2023/08/31 03:13:34;;;;;;;11.48;10.23;;;14.40;1.00;;;;;;5045344;28;20193;-89
2023/08/31 03:16:01;;;;;;;10.25;9.25;;;13.10;1.00;;;;;;5045576;28;20229;-92
2023/08/31 03:18:27;;;;;;;11.00;10.00;;;13.50;99.90;;;;;;5046532;28;20206;-91
2023/08/31 03:20:54;;;;;;;11.10;9.88;;;13.50;1.00;;;;;;5061624;28;20188;-92
2023/08/31 03:23:19;;;;;;;13.70;10.68;;;12.90;1.00;;;;;;5061449;28;20240;-90
2023/08/31 03:25:45;;;;;;;11.77;9.63;;;13.30;1.00;;;;;;5045895;28;20190;-88
2023/08/31 03:28:10;;;;;;;11.25;10.15;;;13.50;17.70;;;;;;5045790;28;20699;-89
2023/08/31 03:30:36;;;;;;;13.27;10.55;;;13.50;65.40;;;;;;5045359;28;20273;-87
2023/08/31 03:33:02;;;;;;;11.23;10.13;;;12.90;99.90;;;;;;5045548;28;20593;-87
2023/08/31 03:35:28;;;;;;;11.88;10.68;;;13.10;53.50;;;;;;5044960;28;20178;-88
2023/08/31 03:37:54;;;;;;;12.73;10.38;;;13.20;99.90;;;;;;5045280;28;20209;-88
2023/08/31 03:40:20;;;;;;;11.23;10.13;;;13.00;41.10;;;;;;5044897;28;20198;-87
2023/08/31 03:42:46;;;;;;;10.80;9.65;;;13.40;1.00;;;;;;5045527;28;21205;-87
2023/08/31 03:45:12;;;;;;;10.07;9.07;;;13.00;99.90;;;;;;5045324;28;20197;-87
2023/08/31 03:47:37;;;;;;;10.77;9.77;;;14.10;1.00;;;;;;5045414;28;20202;-87
2023/08/31 03:50:04;;;;;;;10.55;9.60;;;14.00;99.90;;;;;;5045208;28;20206;-88
2023/08/31 03:52:29;;;;;;;10.85;9.73;;;13.10;99.90;;;;;;5045037;28;20226;-88
2023/08/31 03:54:55;;;;;;;12.73;10.18;;;13.80;1.00;;;;;;5045049;28;20174;-88
2023/08/31 03:57:21;;;;;;;11.00;9.95;;;12.70;1.00;;;;;;5046403;28;20185;-88
2023/08/31 03:59:47;;;;;;;10.40;9.32;;;13.10;1.00;;;;;;5045046;28;20205;-88
2023/08/31 04:02:12;;;;;;;11.05;9.93;;;13.60;1.00;;;;;;5044683;28;20205;-88
2023/08/31 04:04:38;;;;;;;11.43;9.63;;;13.60;1.00;;;;;;5045201;28;20288;-87
2023/08/31 04:07:04;;;;;;;11.25;10.15;;;13.50;1.00;;;;;;5044746;28;20247;-88
2023/08/31 04:09:30;;;;;;;11.10;10.00;;;13.60;1.00;;;;;;5044834;28;20198;-88
2023/08/31 04:11:56;;;;;;;12.15;10.00;;;13.30;1.00;;;;;;5044760;28;20196;-88
2023/08/31 04:14:21;;;;;;;10.43;9.30;;;12.70;13.00;;;;;;5044531;28;20208;-87
2023/08/31 04:16:50;;;;;;;10.55;9.45;;;13.60;99.90;;;;;;5045831;28;20263;-89
2023/08/31 04:19:16;;;;;;;12.43;10.55;;;13.60;99.90;;;;;;5044576;28;20198;-88
2023/08/31 04:21:42;;;;;;;11.90;10.10;;;13.80;99.90;;;;;;5044350;28;20343;-88
2023/08/31 04:24:07;;;;;;;11.27;10.13;;;12.90;1.00;;;;;;5044569;28;20379;-89
2023/08/31 04:26:33;;;;;;;10.73;9.73;;;12.70;92.50;;;;;;5044335;28;20272;-88
2023/08/31 04:28:59;;;;;;;13.35;11.02;;;13.40;99.90;;;;;;5044547;28;20247;-88
2023/08/31 04:31:24;;;;;;;11.40;10.23;;;13.40;1.00;;;;;;5044548;28;20680;-89
2023/08/31 04:33:53;;;;;;;11.35;10.15;;;13.50;1.00;;;;;;5044544;28;20178;-88
2023/08/31 04:36:19;;;;;;;13.27;11.18;;;13.60;99.90;;;;;;5044527;28;20178;-88
2023/08/31 04:38:45;;;;;;;11.13;10.13;;;13.20;99.90;;;;;;5044283;28;20271;-88
2023/08/31 04:41:11;;;;;;;11.68;9.90;;;12.70;99.90;;;;;;5044481;28;20190;-88
2023/08/31 04:43:36;;;;;;;11.10;9.45;;;12.60;1.00;;;;;;5045036;28;20197;-89
2023/08/31 04:46:03;;;;;;;11.52;10.38;;;13.60;1.00;;;;;;5048028;28;20277;-89
2023/08/31 04:48:29;;;;;;;10.73;9.77;;;14.20;1.00;;;;;;5048581;28;20206;-88
2023/08/31 04:50:58;;;;;;;10.95;9.85;;;13.80;1.00;;;;;;5048085;28;20968;-88
2023/08/31 04:53:24;;;;;;;10.35;9.15;;;12.80;99.90;;;;;;5048233;28;20174;-89
2023/08/31 04:55:50;;;;;;;11.00;9.18;;;13.30;1.00;;;;;;5047474;28;20197;-88
2023/08/31 04:58:15;;;;;;;10.63;9.63;;;13.20;99.90;;;;;;5048201;28;21192;-89
2023/08/31 05:00:41;;;;;;;12.35;10.52;;;12.80;1.00;;;;;;5051142;28;20679;-91
2023/08/31 05:03:06;;;;;;;12.68;10.35;;;13.50;99.90;;;;;;5053358;28;20178;-92
2023/08/31 05:05:32;;;;;;;11.70;10.60;;;14.00;99.90;;;;;;5052956;28;20193;-91
2023/08/31 05:07:58;;;;;;;11.60;10.35;;;13.70;1.00;;;;;;5053320;28;20316;-91
2023/08/31 05:10:24;;;;;;;12.35;11.05;;;12.90;1.00;;;;;;5053454;28;20198;-92
2023/08/31 05:12:50;;;;;;;10.85;9.73;;;12.90;1.00;;;;;;5053474;28;20328;-89
2023/08/31 05:15:16;;;;;;;12.18;10.80;;;13.00;99.90;;;;;;5053461;28;20707;-91
2023/08/31 05:17:41;;;;;;;12.70;10.75;;;13.00;99.90;;;;;;5053648;28;20185;-91
2023/08/31 05:20:09;;;;;;;13.48;10.20;;;14.30;99.90;;;;;;5053554;28;20213;-91
2023/08/31 05:22:35;;;;;;;12.57;9.95;;;13.00;1.00;;;;;;5053522;28;20182;-91
2023/08/31 05:25:01;;;;;;;12.40;10.13;;;13.20;20.40;;;;;;5054528;28;20263;-91
2023/08/31 05:27:27;;;;;;;12.48;9.95;;;13.30;99.90;;;;;;5053109;28;20248;-91
2023/08/31 05:29:52;;;;;;;10.80;9.73;;;13.30;1.00;;;;;;5052913;28;20293;-91
2023/08/31 05:32:18;;;;;;;10.38;9.13;;;14.10;96.00;;;;;;5053106;28;20193;-91
2023/08/31 05:34:44;;;;;;;10.52;9.07;;;13.40;99.90;;;;;;5052690;28;20786;-93
2023/08/31 05:37:09;;;;;;;9.43;8.43;;;13.20;1.00;;;;;;5052673;28;20195;-92
2023/08/31 05:39:35;;;;;;;9.70;8.80;;;13.00;1.00;;;;;;5054360;28;20226;-90
2023/08/31 05:42:01;;;;;;;11.40;9.07;;;13.30;99.90;;;;;;5053010;28;20667;-91
2023/08/31 05:44:27;;;;;;;11.02;9.20;;;13.60;99.90;;;;;;5052823;28;20193;-92
2023/08/31 05:46:52;;;;;;;9.60;8.60;;;13.50;99.90;;;;;;5051743;28;20357;-92
2023/08/31 05:49:18;;;;;;;13.77;9.35;;;14.60;99.90;;;;;;5052750;28;20214;-92
2023/08/31 05:51:43;;;;;;;8.70;7.88;;;13.60;1.00;;;;;;5052924;28;20281;-92
2023/08/31 05:54:11;;;;;;;9.27;8.38;;;15.30;1.00;;;;;;5052340;28;20261;-92
2023/08/31 05:56:39;;;;;;;9.30;8.40;;;15.00;99.90;;;;;;5052203;28;20680;-91
2023/08/31 05:59:05;;;;;;;9.18;8.27;;;14.40;99.90;;;;;;5052280;28;20221;-92
2023/08/31 06:01:31;;;;;;;10.40;8.38;;;14.80;99.90;;;;;;5051682;28;20194;-91
2023/08/31 06:03:57;;;;;;;10.15;8.60;;;14.60;99.90;;;;;;5048912;28;20232;-91
2023/08/31 06:06:23;;;;;;;10.60;7.88;;;14.80;1.00;;;;;;5049096;28;20759;-91
2023/08/31 06:08:49;;;;;;;11.65;8.30;;;14.30;1.00;;;;;;5049834;28;20213;-89
2023/08/31 06:11:15;;;;;;;9.93;8.02;;;15.60;1.00;;;;;;5049633;28;20182;-91
2023/08/31 06:13:40;;;;;;;10.82;9.32;;;14.90;1.00;;;;;;5049172;28;20209;-90
2023/08/31 06:16:06;;;;;;;9.57;8.20;;;14.80;1.00;;;;;;5049381;28;20189;-90
2023/08/31 06:18:32;;;;;;;11.52;9.40;;;14.60;1.00;;;;;;5048400;28;20247;-90
2023/08/31 06:20:58;;;;;;;9.60;8.70;;;14.20;1.00;;;;;;5048707;28;20201;-90
2023/08/31 06:23:23;;;;;;;9.80;8.77;;;14.30;3.20;;;;;;5048266;28;20652;-89
2023/08/31 06:25:49;;;;;;;10.57;9.32;;;14.30;1.00;;;;;;5047498;28;20186;-90
2023/08/31 06:28:15;;;;;;;10.75;9.65;;;13.70;93.20;;;;;;5048203;28;20213;-91
2023/08/31 06:30:46;;;;;;;10.25;9.15;;;14.30;99.90;;;;;;5048126;28;20190;-90
2023/08/31 06:33:12;;;;;;;10.75;9.65;;;14.20;66.10;;;;;;5048320;28;20178;-90
2023/08/31 06:35:38;;;;;;;10.45;9.38;;;15.60;1.00;;;;;;5063011;28;20251;-92
2023/08/31 06:38:05;;;;;;;10.75;9.38;;;15.00;1.00;;;;;;5048381;28;20674;-90
2023/08/31 06:40:35;;;;;;;10.52;9.45;;;14.70;1.00;;;;;;5053980;28;20554;-89
2023/08/31 06:43:01;;;;;;;11.25;10.15;;;14.30;1.00;;;;;;5053765;28;20181;-90
2023/08/31 06:45:27;;;;;;;10.90;9.15;;;14.90;1.00;;;;;;5054099;28;20177;-90
2023/08/31 06:47:53;;;;;;;10.52;9.43;;;14.50;1.00;;;;;;5053572;28;20585;-90
2023/08/31 06:50:18;;;;;;;12.27;9.77;;;14.50;1.00;;;;;;5053517;28;20240;-90
2023/08/31 06:52:46;;;;;;;10.45;9.20;;;14.70;1.00;;;;;;5053614;28;20166;-90
2023/08/31 06:55:12;;;;;;;10.93;8.95;;;14.40;1.00;;;;;;5053381;28;20264;-91
2023/08/31 06:57:37;;;;;;;10.18;9.02;;;14.90;1.00;;;;;;5053601;28;20681;-91
2023/08/31 07:00:05;;;;;;;19.73;17.15;;;14.90;1.00;;;;;;5053594;28;20221;-91
2023/08/31 07:02:31;;;;;;;11.90;10.70;;;16.30;99.90;;;;;;5053810;28;20174;-92
2023/08/31 07:04:57;;;;;;;11.15;8.40;;;17.40;1.00;;;;;;5053743;28;20182;-92
2023/08/31 07:07:23;;;;;;;9.07;8.15;;;16.70;1.00;;;;;;5049351;28;20686;-93
2023/08/31 07:09:48;;;;;;;8.82;8.05;;;16.10;1.00;;;;;;5047980;28;20252;-91
2023/08/31 07:12:14;;;;;;;9.40;8.40;;;16.40;1.00;;;;;;5048334;28;20186;-91
2023/08/31 07:14:40;;;;;;;8.88;7.95;;;15.30;43.60;;;;;;5048621;28;20793;-91
2023/08/31 07:17:06;;;;;;;10.27;8.18;;;15.30;92.80;;;;;;5049818;28;20592;-91
2023/08/31 07:19:31;;;;;;;9.30;8.32;;;15.20;99.90;;;;;;5048442;28;20575;-91
2023/08/31 07:21:57;;;;;;;8.40;7.65;;;15.30;99.90;;;;;;5048941;28;20184;-90
2023/08/31 07:24:50;;;;;;;8.75;7.95;;;16.40;99.90;;;;;;5049044;28;20228;-91
2023/08/31 07:27:15;;;;;;;7.68;6.72;;;16.00;99.90;;;;;;5048645;28;20209;-92
2023/08/31 07:29:41;;;;;;;7.10;6.40;;;15.20;99.90;;;;;;5049065;28;20205;-91
2023/08/31 07:32:06;;;;;;;8.93;6.20;;;16.90;99.90;;;;;;5049702;28;20207;-91
2023/08/31 07:34:33;;;;;;;7.00;5.75;;;15.30;99.90;;;;;;5049548;28;20182;-91
2023/08/31 07:37:00;;;;;;;6.13;5.53;;;15.70;93.20;;;;;;5049581;28;20693;-91
2023/08/31 07:39:26;;;;;;;5.78;5.20;;;15.90;95.50;;;;;;5050008;28;20205;-91
2023/08/31 07:41:54;;;;;;;10.88;5.25;;;16.30;20.30;;;;;;5049246;28;20209;-91
2023/08/31 07:44:20;;;;;;;5.25;4.78;;;15.50;1.00;;;;;;5048307;28;20252;-91
2023/08/31 07:46:45;;;;;;;4.60;4.20;;;16.40;1.00;;;;;;5049448;28;20656;-90
2023/08/31 07:49:11;;;;;;;5.85;4.22;;;15.70;1.00;;;;;;5050290;28;20213;-90
2023/08/31 07:51:36;;;;;;;4.95;4.55;;;16.70;1.00;;;;;;5050316;28;20280;-90
2023/08/31 07:54:03;;;;;;;4.72;4.00;;;15.30;1.00;;;;;;5049723;28;20194;-90
2023/08/31 07:56:41;;;;;;;4.90;4.40;;;15.30;1.00;;;;;;5049102;28;20581;-91
2023/08/31 07:59:09;;;;;;;4.78;4.25;;;15.80;1.00;;;;;;5049235;28;20632;-91
2023/08/31 08:01:44;;;;;;;5.22;3.95;;;16.10;1.00;;;;;;5050274;28;20186;-90
2023/08/31 08:04:11;;;;;;;5.13;3.90;;;15.90;1.00;;;;;;5050675;28;20268;-90
2023/08/31 08:06:36;;;;;;;3.80;3.50;;;16.00;1.00;;;;;;5047243;28;20565;-90
2023/08/31 08:09:04;;;;;;;4.20;3.90;;;17.20;1.00;;;;;;5050960;28;20254;-90
2023/08/31 08:12:20;;;;;;;3.67;3.38;;;16.20;1.00;;;;;;5045623;28;20203;-90
2023/08/31 08:18:24;;;;;;;5.47;3.35;;;16.20;1.00;;;;;;5049985;28;20201;-90
2023/08/31 08:20:53;;;;;;;3.40;3.10;;;17.00;1.00;;;;;;5050094;28;20188;-90
2023/08/31 08:23:19;;;;;;;4.03;3.45;;;17.40;1.00;;;;;;5049473;28;20174;-88
2023/08/31 08:25:45;;;;;;;3.42;3.00;;;17.10;1.00;;;;;;5048923;28;20178;-90
2023/08/31 08:28:10;;;;;;;3.80;3.25;;;16.10;1.00;;;;;;5048480;28;20271;-87
2023/08/31 08:30:36;;;;;;;4.43;3.13;;;17.00;1.00;;;;;;5049038;28;20194;-87
2023/08/31 08:33:02;;;;;;;3.10;2.80;;;16.30;1.00;;;;;;5048567;28;20182;-89
2023/08/31 08:35:28;;;;;;;4.45;2.83;;;16.70;1.00;;;;;;5048163;28;20226;-87
2023/08/31 08:37:53;;;;;;;4.25;3.05;;;16.80;1.00;;;;;;5051873;28;20672;-88
2023/08/31 08:40:19;;;;;;;3.28;2.90;;;16.90;1.00;;;;;;5049004;28;20210;-89
2023/08/31 08:42:47;;;;;;;2.90;2.70;;;16.70;1.00;;;;;;5048661;28;20208;-88
2023/08/31 08:45:18;;;;;;;2.85;2.60;;;16.50;1.00;;;;;;5049837;28;20189;-89
2023/08/31 08:47:44;;;;;;;2.97;2.67;;;16.70;1.00;;;;;;5049098;28;20236;-89
2023/08/31 08:50:11;;;;;;;2.75;2.50;;;16.90;1.00;;;;;;5048926;28;20711;-89
2023/08/31 08:52:39;;;;;;;2.90;2.60;;;17.30;1.00;;;;;;5049073;28;20675;-88
2023/08/31 08:55:05;;;;;;;2.67;2.47;;;16.90;1.00;;;;;;5049064;28;20228;-88
2023/08/31 08:57:38;;;;;;;2.22;2.03;;;17.10;1.00;;;;;;5051152;28;20648;-88
2023/08/31 09:00:04;;;;;;;3.83;2.00;;;17.50;1.00;;;;;;5050326;28;20292;-92
2023/08/31 09:02:30;;;;;;;3.53;2.20;;;17.20;1.00;;;;;;5049758;28;20708;-88
2023/08/31 09:04:56;;;;;;;3.33;2.03;;;17.60;1.00;;;;;;5047924;28;20197;-88
2023/08/31 09:07:22;;;;;;;1.85;1.60;;;17.70;1.00;;;;;;5047968;28;20763;-89
2023/08/31 09:09:52;;;;;;;2.40;2.13;;;17.90;1.00;;;;;;5048080;28;20202;-88
2023/08/31 09:12:18;;;;;;;2.03;1.85;;;17.80;99.90;;;;;;5049125;28;20183;-88
2023/08/31 09:14:43;;;;;;;3.30;1.88;;;17.80;99.90;;;;;;5047442;28;20192;-87
2023/08/31 09:17:09;;;;;;;2.45;1.80;;;17.70;99.90;;;;;;5049421;28;20561;-88
2023/08/31 09:19:35;;;;;;;3.63;1.63;;;17.70;99.90;;;;;;5050377;28;20198;-87
2023/08/31 09:22:01;;;;;;;3.50;1.83;;;17.60;99.90;;;;;;5048492;28;20239;-88
2023/08/31 09:24:27;;;;;;;2.75;1.48;;;17.60;99.90;;;;;;5048842;28;20174;-88
2023/08/31 09:26:58;;;;;;;1.60;1.50;;;17.60;99.90;;;;;;5047038;28;20182;-88
2023/08/31 09:29:23;;;;;;;1.77;1.58;;;17.70;99.90;;;;;;5046922;28;20240;-88
2023/08/31 09:31:49;;;;;;;3.08;1.70;;;17.80;99.90;;;;;;5047633;28;20758;-87
2023/08/31 09:34:16;;;;;;;3.10;1.60;;;17.90;99.90;;;;;;5047301;28;20178;-89
2023/08/31 09:36:42;;;;;;;2.28;1.60;;;17.80;99.90;;;;;;5048715;28;20935;-87
2023/08/31 09:39:09;;;;;;;2.50;1.67;;;17.70;99.90;;;;;;5049491;28;20684;-86
2023/08/31 09:41:35;;;;;;;2.15;1.30;;;17.60;99.90;;;;;;5063356;28;20320;-88
2023/08/31 09:44:18;;;;;;;2.25;1.45;;;17.40;99.90;;;;;;5047860;28;20190;-87
2023/08/31 09:46:45;;;;;;;1.65;1.40;;;17.40;99.90;;;;;;5064012;28;20186;-86
2023/08/31 09:49:17;;;;;;;1.55;1.30;;;17.50;99.90;;;;;;5064967;28;20214;-86
2023/08/31 09:51:48;;;;;;;2.83;1.58;;;17.70;99.90;;;;;;5049508;28;20186;-86
2023/08/31 09:54:16;;;;;;;1.17;1.08;;;17.70;99.90;;;;;;5048067;28;20184;-87
2023/08/31 09:56:43;;;;;;;2.08;1.27;;;17.90;99.90;;;;;;5047481;28;20182;-86
2023/08/31 09:59:14;;;;;;;2.67;1.10;;;17.70;99.90;;;;;;5048192;28;20209;-86
2023/08/31 10:01:40;;;;;;;2.15;1.20;;;17.80;99.90;;;;;;5047933;28;20193;-87
2023/08/31 10:04:08;;;;;;;1.80;1.05;;;17.70;99.90;;;;;;5046601;28;20192;-86
2023/08/31 10:06:38;;;;;;;2.75;1.67;;;17.90;99.90;;;;;;5048434;28;20188;-86
2023/08/31 10:09:04;;;;;;;4.60;2.63;;;17.80;99.90;;;;;;5048070;28;20214;-87
2023/08/31 10:11:30;;;;;;;2.28;1.00;;;17.90;99.90;;;;;;5048256;28;20178;-85
2023/08/31 10:13:57;;;;;;;2.58;0.98;;;17.90;99.90;;;;;;5047045;28;20226;-86
2023/08/31 10:16:26;;;;;;;1.80;0.93;;;17.80;99.90;;;;;;5046318;28;20248;-87
2023/08/31 10:18:52;;;;;;;1.15;1.00;;;17.80;99.90;;;;;;5047224;28;20214;-86
2023/08/31 10:21:18;;;;;;;1.40;1.00;;;17.90;99.90;;;;;;5048691;28;20216;-86
2023/08/31 10:23:48;;;;;;;1.90;1.20;;;18.10;99.90;;;;;;5047135;28;21214;-86
2023/08/31 10:26:32;;;;;;;1.58;0.90;;;18.10;99.90;;;;;;5046665;28;20671;-86
2023/08/31 10:29:00;;;;;;;1.73;1.05;;;18.20;99.90;;;;;;5049104;28;20213;-89
2023/08/31 10:31:30;;;;;;;2.05;1.30;;;18.10;99.90;;;;;;5049004;28;20274;-90
2023/08/31 10:34:09;;;;;;;1.17;1.05;;;18.10;99.90;;;;;;5047687;28;20660;-87
2023/08/31 10:36:35;;;;;;;3.35;0.95;;;18.00;99.90;;;;;;5046899;28;20249;-86
2023/08/31 10:39:06;;;;;;;2.00;0.95;;;18.00;99.90;;;;;;5047560;28;20368;-88
2023/08/31 10:41:35;;;;;;;1.73;0.90;;;16.60;99.90;;;;;;5048331;28;20235;-89
2023/08/31 10:44:01;;;;;;;1.92;1.10;;;17.80;99.90;;;;;;5047411;28;20558;-88
2023/08/31 10:46:32;;;;;;;2.72;1.30;;;17.70;99.90;;;;;;5044664;28;20190;-91
2023/08/31 10:49:00;;;;;;;1.30;0.90;;;17.70;99.90;;;;;;5047401;28;20782;-89
2023/08/31 10:51:32;;;;;;;1.63;0.90;;;17.90;99.90;;;;;;5047796;28;20178;-87
2023/08/31 10:54:10;;;;;;;1.20;1.00;;;18.00;99.90;;;;;;5048767;28;20182;-90
2023/08/31 10:57:00;;;;;;;1.25;0.80;;;17.90;99.90;;;;;;5047881;28;20185;-88
2023/08/31 10:59:54;;;;;;;2.67;1.05;;;17.70;99.90;;;;;;5062407;28;20198;-88
2023/08/31 11:02:43;;;;;;;2.00;1.02;;;17.50;99.90;;;;;;5047887;28;20178;-90
2023/08/31 11:05:15;;;;;;;3.38;0.98;;;17.40;99.90;;;;;;5048190;28;20193;-90
2023/08/31 11:07:52;;;;;;;3.22;1.08;;;17.40;99.90;;;;;;5065639;28;20221;-87
2023/08/31 11:10:29;;;;;;;3.22;1.20;;;17.30;99.90;;;;;;5046144;28;20209;-85
2023/08/31 11:12:57;;;;;;;2.47;0.88;;;17.20;99.90;;;;;;5047216;28;20280;-86
2023/08/31 11:15:26;;;;;;;1.05;0.90;;;16.80;99.90;;;;;;5047085;28;20190;-89
2023/08/31 11:17:55;;;;;;;2.15;1.17;;;16.60;99.90;;;;;;5046162;28;20241;-88
2023/08/31 11:20:22;;;;;;;1.42;0.98;;;16.70;99.90;;;;;;5063416;28;20205;-87
2023/08/31 11:22:50;;;;;;;2.70;1.13;;;17.20;99.90;;;;;;5045726;28;20186;-87
2023/08/31 11:25:17;;;;;;;1.20;1.10;;;17.50;99.90;;;;;;5046943;28;20190;-86
2023/08/31 11:27:54;;;;;;;1.45;1.10;;;17.10;99.90;;;;;;5046238;28;20271;-89
2023/08/31 11:30:20;;;;;;;3.42;0.90;;;17.00;99.90;;;;;;5046716;28;20201;-86
2023/08/31 11:32:49;;;;;;;2.78;1.10;;;17.00;99.90;;;;;;5045762;28;20210;-86
2023/08/31 11:35:18;;;;;;;2.45;1.00;;;17.00;99.90;;;;;;5045869;28;20190;-87
2023/08/31 11:37:45;;;;;;;1.52;0.80;;;17.10;99.90;;;;;;5046002;28;20189;-88
2023/08/31 11:40:10;;;;;;;1.45;1.08;;;17.00;99.90;;;;;;5045346;28;20201;-88
2023/08/31 11:42:37;;;;;;;1.42;0.90;;;17.10;99.90;;;;;;5046587;28;20252;-89
2023/08/31 11:45:05;;;;;;;1.42;0.90;;;16.30;99.90;;;;;;5045378;28;20197;-88
2023/08/31 11:47:32;;;;;;;1.60;1.00;;;17.40;99.90;;;;;;5046489;28;20204;-87
2023/08/31 11:49:58;;;;;;;2.92;1.08;;;17.70;99.90;;;;;;5046288;28;20229;-87
2023/08/31 11:52:24;;;;;;;1.40;1.27;;;17.70;99.90;;;;;;5045896;28;20213;-88
2023/08/31 11:54:53;;;;;;;3.20;1.30;;;17.50;99.90;;;;;;5047149;28;20186;-90
2023/08/31 11:57:18;;;;;;;2.33;1.35;;;17.00;99.90;;;;;;5044771;28;20171;-88
2023/08/31 11:59:44;;;;;;;1.65;1.13;;;16.70;99.90;;;;;;5041127;28;20248;-88
2023/08/31 12:02:23;;;;;;;1.45;1.20;;;16.40;99.90;;;;;;5043247;28;20875;-90
2023/08/31 12:04:59;;;;;;;1.73;1.33;;;16.50;99.90;;;;;;5058366;28;20479;-88
2023/08/31 12:07:25;;;;;;;3.55;1.30;;;17.80;99.90;;;;;;5042804;28;20209;-89
2023/08/31 12:09:50;;;;;;;2.65;1.48;;;16.60;1.00;;;;;;5043419;28;20214;-87
2023/08/31 12:12:21;;;;;;;3.28;1.42;;;16.40;99.90;;;;;;5043693;28;20529;-88
2023/08/31 12:14:47;;;;;;;2.08;1.27;;;16.40;99.90;;;;;;5042755;28;20559;-88
2023/08/31 12:17:12;;;;;;;2.78;1.30;;;16.30;99.90;;;;;;5043042;28;20194;-87
2023/08/31 12:19:39;;;;;;;1.77;1.00;;;16.30;99.90;;;;;;5042585;28;20587;-90
2023/08/31 12:22:07;;;;;;;2.67;1.05;;;16.50;99.90;;;;;;5043094;28;20611;-89
2023/08/31 12:24:40;;;;;;;1.33;0.90;;;16.50;99.90;;;;;;5043768;28;20201;-88
2023/08/31 12:27:09;;;;;;;1.20;0.93;;;16.40;99.90;;;;;;5042271;28;20271;-89
2023/08/31 12:29:35;;;;;;;1.08;0.70;;;16.30;99.90;;;;;;5043720;28;20230;-89
2023/08/31 12:32:01;;;;;;;1.67;1.00;;;16.40;99.90;;;;;;5043245;28;20276;-88
2023/08/31 12:34:26;;;;;;;1.27;0.60;;;16.30;99.90;;;;;;5046639;28;20757;-90
2023/08/31 12:36:52;;;;;;;1.50;0.90;;;16.40;99.90;;;;;;5044886;28;20709;-87
2023/08/31 12:39:18;;;;;;;3.08;0.82;;;16.90;99.90;;;;;;5045558;28;20206;-89
2023/08/31 12:41:44;;;;;;;1.50;0.90;;;16.80;99.90;;;;;;5043332;28;20182;-88
2023/08/31 12:44:09;;;;;;;2.03;0.88;;;17.00;99.90;;;;;;5045620;28;20564;-89
2023/08/31 12:46:35;;;;;;;1.58;1.00;;;17.10;99.90;;;;;;5042346;28;20273;-89
2023/08/31 12:49:02;;;;;;;2.75;1.30;;;17.20;99.90;;;;;;5041662;28;20587;-89
2023/08/31 12:51:31;;;;;;;1.30;1.00;;;17.30;99.90;;;;;;5042350;28;20182;-88